createdAt,value
2018-12-25T00:00:46.526Z,2.80
2018-12-25T00:03:13.960Z,2.70
2018-12-25T00:05:41.302Z,2.60
2018-12-25T00:08:09.346Z,2.40
2018-12-25T00:10:36.696Z,2.40
2018-12-25T00:13:04.336Z,2.40
2018-12-25T00:15:31.677Z,2.50
2018-12-25T00:17:59.046Z,2.50
2018-12-25T00:20:26.451Z,2.50
2018-12-25T00:22:53.860Z,2.50
2018-12-25T00:25:21.331Z,2.50
2018-12-25T00:27:49.107Z,2.50
2018-12-25T00:30:16.470Z,2.40
2018-12-25T00:32:43.779Z,2.50
2018-12-25T00:35:11.134Z,2.60
2018-12-25T00:37:38.497Z,2.80
2018-12-25T00:40:05.872Z,2.70
2018-12-25T00:42:33.200Z,2.70
2018-12-25T00:45:00.944Z,2.70
2018-12-25T00:47:28.255Z,2.60
2018-12-25T00:49:56.027Z,2.50
2018-12-25T00:52:23.316Z,2.40
2018-12-25T00:54:50.665Z,2.30
2018-12-25T00:57:18.348Z,2.30
2018-12-25T00:59:46.009Z,2.40
2018-12-25T01:02:13.446Z,2.50
2018-12-25T01:04:40.868Z,2.40
2018-12-25T01:07:08.627Z,2.60
2018-12-25T01:09:35.965Z,2.50
2018-12-25T01:12:03.302Z,2.50
2018-12-25T01:14:31.358Z,2.40
2018-12-25T01:16:58.725Z,2.40
2018-12-25T01:19:26.233Z,2.40
2018-12-25T01:21:53.589Z,2.40
2018-12-25T01:24:20.956Z,2.30
2018-12-25T01:26:48.312Z,2.40
2018-12-25T01:29:15.636Z,2.50
2018-12-25T01:31:43.421Z,2.70
2018-12-25T01:34:10.802Z,2.70
2018-12-25T01:36:38.228Z,2.80
2018-12-25T01:39:06.468Z,2.70
2018-12-25T01:41:34.228Z,2.70
2018-12-25T01:44:02.230Z,2.80
2018-12-25T01:46:29.617Z,2.80
2018-12-25T01:48:58.745Z,2.80
2018-12-25T01:51:26.104Z,3.00
2018-12-25T01:53:53.531Z,3.00
2018-12-25T01:56:21.272Z,2.90
2018-12-25T01:58:48.785Z,3.20
2018-12-25T02:01:16.165Z,3.30
2018-12-25T02:03:43.487Z,3.30
2018-12-25T02:06:10.829Z,3.20
2018-12-25T02:08:38.140Z,3.10
2018-12-25T02:11:05.509Z,3.10
2018-12-25T02:13:33.572Z,3.10
2018-12-25T02:16:00.914Z,3.20
2018-12-25T02:18:28.615Z,3.00
2018-12-25T02:20:55.962Z,3.10
2018-12-25T02:23:24.307Z,3.20
2018-12-25T02:25:51.704Z,3.10
2018-12-25T02:28:19.250Z,3.10
2018-12-25T02:30:46.880Z,3.20
2018-12-25T02:33:14.176Z,3.20
2018-12-25T02:35:41.890Z,3.20
2018-12-25T02:38:09.667Z,3.30
2018-12-25T02:40:37.315Z,3.20
2018-12-25T02:43:04.664Z,3.20
2018-12-25T02:45:32.071Z,3.00
2018-12-25T02:47:59.442Z,2.90
2018-12-25T02:50:27.236Z,2.90
2018-12-25T02:52:54.820Z,2.90
2018-12-25T02:55:22.128Z,3.10
2018-12-25T02:57:49.493Z,3.10
2018-12-25T03:00:16.823Z,3.00
2018-12-25T03:02:44.537Z,3.20
2018-12-25T03:05:11.852Z,3.30
2018-12-25T03:07:39.644Z,3.30
2018-12-25T03:10:07.584Z,3.30
2018-12-25T03:12:35.199Z,3.20
2018-12-25T03:15:02.735Z,3.20
2018-12-25T03:17:30.187Z,3.20
2018-12-25T03:20:00.229Z,3.00
2018-12-25T03:22:27.807Z,2.80
2018-12-25T03:24:55.469Z,2.80
2018-12-25T03:27:23.219Z,2.80
2018-12-25T03:29:51.929Z,2.90
2018-12-25T03:32:19.288Z,2.90
2018-12-25T03:34:46.966Z,2.80
2018-12-25T03:37:14.324Z,2.70
2018-12-25T03:39:41.650Z,2.80
2018-12-25T03:42:11.046Z,2.80
2018-12-25T03:44:38.701Z,3.00
2018-12-25T03:47:06.076Z,3.10
2018-12-25T03:49:33.406Z,3.40
2018-12-25T03:52:00.780Z,3.30
2018-12-25T03:54:28.730Z,3.20
2018-12-25T03:56:56.091Z,3.30
2018-12-25T03:59:23.457Z,3.30
2018-12-25T04:01:51.123Z,3.10
2018-12-25T04:04:18.445Z,3.10
2018-12-25T04:06:46.129Z,3.00
2018-12-25T04:09:13.465Z,3.00
2018-12-25T04:11:40.821Z,3.40
2018-12-25T04:14:08.269Z,3.40
2018-12-25T04:16:35.983Z,3.50
2018-12-25T04:19:03.563Z,3.70
2018-12-25T04:21:31.030Z,3.70
2018-12-25T04:23:58.371Z,3.70
2018-12-25T04:26:25.737Z,3.80
2018-12-25T04:28:53.117Z,3.50
2018-12-25T04:31:20.541Z,3.50
2018-12-25T04:33:48.229Z,3.40
2018-12-25T04:36:15.584Z,3.40
2018-12-25T04:38:43.383Z,3.30
2018-12-25T04:41:10.778Z,3.30
2018-12-25T04:43:38.132Z,3.20
2018-12-25T04:46:05.735Z,3.20
2018-12-25T04:48:33.141Z,3.50
2018-12-25T04:51:01.159Z,3.50
2018-12-25T04:53:28.518Z,3.30
2018-12-25T04:55:56.061Z,3.40
2018-12-25T04:58:23.421Z,3.50
2018-12-25T05:00:50.778Z,3.40
2018-12-25T05:03:18.120Z,3.30
2018-12-25T05:05:45.443Z,3.40
2018-12-25T05:08:12.811Z,3.40
2018-12-25T05:10:40.476Z,3.30
2018-12-25T05:13:08.171Z,3.20
2018-12-25T05:15:35.510Z,3.30
2018-12-25T05:18:02.867Z,3.40
2018-12-25T05:20:37.662Z,3.30
2018-12-25T05:22:59.908Z,3.20
2018-12-25T05:25:27.300Z,3.20
2018-12-25T05:27:54.682Z,3.00
2018-12-25T05:30:22.099Z,2.90
2018-12-25T05:32:49.773Z,3.00
2018-12-25T05:35:17.074Z,3.00
2018-12-25T05:37:44.473Z,3.40
2018-12-25T05:40:11.778Z,3.30
2018-12-25T05:42:40.038Z,3.40
2018-12-25T05:45:07.378Z,3.50
2018-12-25T05:47:34.727Z,3.40
2018-12-25T05:50:02.186Z,3.40
2018-12-25T05:52:30.166Z,3.30
2018-12-25T05:54:57.882Z,3.30
2018-12-25T05:57:25.204Z,3.30
2018-12-25T05:59:53.185Z,3.30
2018-12-25T06:02:20.627Z,3.40
2018-12-25T06:04:49.775Z,3.40
2018-12-25T06:07:17.078Z,3.40
2018-12-25T06:09:44.422Z,3.30
2018-12-25T06:12:11.742Z,3.30
2018-12-25T06:14:39.090Z,3.20
2018-12-25T06:17:06.750Z,3.10
2018-12-25T06:19:34.128Z,3.20
2018-12-25T06:22:01.474Z,3.20
2018-12-25T06:24:28.815Z,3.40
2018-12-25T06:26:56.909Z,3.60
2018-12-25T06:29:24.266Z,3.50
2018-12-25T06:31:51.695Z,3.50
2018-12-25T06:34:19.150Z,3.40
2018-12-25T06:36:46.470Z,3.20
2018-12-25T06:39:13.818Z,3.20
2018-12-25T06:41:41.180Z,3.40
2018-12-25T06:44:08.595Z,3.20
2018-12-25T06:46:36.044Z,3.00
2018-12-25T06:49:03.402Z,3.00
2018-12-25T06:51:31.118Z,3.10
2018-12-25T06:53:58.584Z,3.20
2018-12-25T06:56:25.920Z,3.20
2018-12-25T06:58:53.586Z,3.10
2018-12-25T07:01:20.918Z,3.20
2018-12-25T07:03:48.269Z,3.10
2018-12-25T07:06:15.556Z,3.10
2018-12-25T07:08:43.270Z,3.00
2018-12-25T07:11:10.594Z,3.10
2018-12-25T07:13:38.010Z,3.20
2018-12-25T07:16:05.340Z,3.30
2018-12-25T07:18:33.006Z,3.40
2018-12-25T07:21:00.375Z,3.40
2018-12-25T07:23:27.815Z,3.20
2018-12-25T07:25:58.082Z,3.00
2018-12-25T07:28:25.419Z,3.10
2018-12-25T07:30:52.853Z,3.40
2018-12-25T07:33:20.565Z,3.40
2018-12-25T07:35:48.068Z,3.50
2018-12-25T07:38:15.701Z,3.30
2018-12-25T07:40:43.116Z,3.20
2018-12-25T07:43:10.425Z,3.10
2018-12-25T07:45:37.883Z,3.10
2018-12-25T07:48:05.600Z,3.30
2018-12-25T07:50:33.335Z,3.50
2018-12-25T07:53:00.647Z,3.30
2018-12-25T07:55:28.654Z,3.10
2018-12-25T07:57:55.983Z,3.10
2018-12-25T08:00:23.331Z,3.20
2018-12-25T08:02:50.920Z,3.10
2018-12-25T08:05:18.280Z,3.20
2018-12-25T08:07:45.586Z,3.00
2018-12-25T08:10:13.230Z,3.00
2018-12-25T08:12:40.550Z,2.90
2018-12-25T08:15:07.895Z,3.00
2018-12-25T08:17:35.713Z,3.20
2018-12-25T08:20:03.878Z,3.30
2018-12-25T08:22:31.700Z,3.30
2018-12-25T08:24:59.579Z,3.30
2018-12-25T08:27:27.004Z,3.20
2018-12-25T08:29:54.347Z,3.20
2018-12-25T08:32:21.672Z,3.20
2018-12-25T08:34:49.412Z,3.40
2018-12-25T08:37:16.848Z,3.60
2018-12-25T08:39:44.624Z,3.70
2018-12-25T08:42:13.042Z,3.60
2018-12-25T08:44:40.422Z,3.60
2018-12-25T08:47:08.194Z,3.70
2018-12-25T08:49:35.888Z,3.50
2018-12-25T08:52:03.583Z,3.70
2018-12-25T08:54:30.918Z,3.60
2018-12-25T08:56:58.759Z,3.60
2018-12-25T08:59:26.213Z,3.70
2018-12-25T09:01:53.811Z,3.80
2018-12-25T09:04:21.136Z,3.80
2018-12-25T09:06:48.799Z,3.60
2018-12-25T09:09:16.155Z,3.70
2018-12-25T09:11:43.594Z,3.60
2018-12-25T09:14:11.273Z,3.80
2018-12-25T09:16:38.649Z,3.70
2018-12-25T09:19:06.076Z,3.70
2018-12-25T09:21:33.887Z,3.90
2018-12-25T09:24:01.578Z,3.80
2018-12-25T09:26:29.011Z,4.00
2018-12-25T09:28:56.812Z,3.90
2018-12-25T09:31:24.289Z,4.00
2018-12-25T09:33:51.742Z,4.00
2018-12-25T09:36:19.484Z,4.10
2018-12-25T09:38:46.940Z,4.00
2018-12-25T09:41:14.303Z,4.00
2018-12-25T09:43:41.955Z,4.00
2018-12-25T09:46:09.663Z,4.20
2018-12-25T09:48:37.330Z,4.10
2018-12-25T09:51:04.780Z,4.10
2018-12-25T09:53:32.425Z,4.10
2018-12-25T09:56:00.202Z,4.00
2018-12-25T09:58:27.676Z,4.10
2018-12-25T10:00:55.314Z,4.10
2018-12-25T10:03:22.678Z,4.20
2018-12-25T10:05:50.122Z,4.30
2018-12-25T10:08:17.492Z,4.20
2018-12-25T10:10:44.909Z,4.30
2018-12-25T10:13:12.329Z,4.30
2018-12-25T10:15:39.763Z,4.20
2018-12-25T10:18:07.117Z,4.30
2018-12-25T10:20:34.562Z,4.20
2018-12-25T10:23:02.226Z,4.20
2018-12-25T10:25:29.645Z,4.20
2018-12-25T10:27:56.994Z,4.00
2018-12-25T10:30:24.398Z,4.00
2018-12-25T10:32:52.169Z,4.00
2018-12-25T10:35:19.561Z,3.90
2018-12-25T10:37:47.411Z,3.80
2018-12-25T10:40:14.872Z,3.90
2018-12-25T10:42:42.608Z,3.90
2018-12-25T10:45:09.975Z,4.00
2018-12-25T10:47:37.738Z,3.90
2018-12-25T10:50:06.313Z,3.90
2018-12-25T10:52:33.799Z,3.90
2018-12-25T10:55:01.157Z,3.80
2018-12-25T10:57:29.519Z,3.80
2018-12-25T10:59:56.923Z,3.80
2018-12-25T11:02:24.618Z,4.00
2018-12-25T11:04:52.589Z,3.80
2018-12-25T11:07:20.235Z,3.90
2018-12-25T11:09:47.675Z,3.80
2018-12-25T11:12:15.363Z,3.90
2018-12-25T11:14:43.030Z,4.00
2018-12-25T11:17:11.228Z,4.00
2018-12-25T11:19:38.670Z,4.00
2018-12-25T11:22:06.941Z,4.10
2018-12-25T11:24:34.645Z,4.10
2018-12-25T11:27:02.016Z,4.20
2018-12-25T11:29:29.582Z,3.90
2018-12-25T11:31:57.092Z,3.80
2018-12-25T11:34:24.718Z,3.70
2018-12-25T11:36:52.499Z,3.70
2018-12-25T11:39:19.870Z,3.90
2018-12-25T11:41:47.523Z,4.00
2018-12-25T11:44:14.879Z,4.00
2018-12-25T11:46:42.377Z,3.90
2018-12-25T11:49:09.708Z,3.80
2018-12-25T11:51:37.062Z,3.80
2018-12-25T11:54:04.439Z,3.70
2018-12-25T11:56:31.876Z,3.70
2018-12-25T11:58:59.287Z,3.70
2018-12-25T12:01:26.670Z,3.90
2018-12-25T12:03:54.052Z,3.90
2018-12-25T12:06:22.600Z,3.80
2018-12-25T12:08:49.963Z,3.90
2018-12-25T12:11:18.013Z,4.00
2018-12-25T12:13:45.407Z,4.20
2018-12-25T12:16:12.850Z,4.30
2018-12-25T12:18:40.319Z,4.30
2018-12-25T12:21:07.778Z,4.20
2018-12-25T12:23:35.240Z,4.10
2018-12-25T12:26:02.538Z,4.00
2018-12-25T12:28:29.908Z,4.30
2018-12-25T12:30:57.377Z,4.20
2018-12-25T12:33:24.905Z,4.10
2018-12-25T12:35:52.333Z,4.10
2018-12-25T12:38:20.402Z,4.10
2018-12-25T12:40:47.813Z,4.00
2018-12-25T12:43:15.433Z,4.00
2018-12-25T12:45:43.071Z,3.80
2018-12-25T12:48:10.448Z,3.80
2018-12-25T12:50:38.250Z,3.60
2018-12-25T12:53:05.924Z,3.80
2018-12-25T12:55:33.270Z,3.70
2018-12-25T12:58:00.610Z,3.70
2018-12-25T13:00:27.982Z,3.80
2018-12-25T13:02:55.334Z,3.80
2018-12-25T13:05:22.702Z,3.70
2018-12-25T13:07:51.349Z,3.60
2018-12-25T13:10:18.801Z,3.60
2018-12-25T13:12:47.373Z,3.60
2018-12-25T13:15:14.811Z,3.50
2018-12-25T13:17:42.195Z,3.60
2018-12-25T13:20:09.892Z,3.60
2018-12-25T13:22:37.282Z,3.60
2018-12-25T13:25:04.624Z,3.60
2018-12-25T13:27:32.685Z,3.50
2018-12-25T13:30:00.368Z,3.40
2018-12-25T13:32:27.982Z,3.40
2018-12-25T13:34:57.565Z,3.50
2018-12-25T13:37:25.384Z,3.50
2018-12-25T13:39:53.149Z,3.40
2018-12-25T13:42:20.611Z,3.50
2018-12-25T13:44:48.571Z,3.50
2018-12-25T13:47:16.286Z,3.70
2018-12-25T13:49:43.657Z,3.90
2018-12-25T13:52:10.973Z,3.90
2018-12-25T13:54:38.700Z,3.80
2018-12-25T13:57:06.791Z,3.80
2018-12-25T13:59:34.657Z,4.00
2018-12-25T14:02:01.990Z,4.10
2018-12-25T14:04:29.367Z,4.10
2018-12-25T14:06:56.819Z,3.90
2018-12-25T14:09:24.794Z,4.00
2018-12-25T14:11:52.523Z,4.00
2018-12-25T14:14:19.917Z,3.80
2018-12-25T14:16:47.837Z,4.00
2018-12-25T14:19:15.842Z,3.80
2018-12-25T14:21:43.601Z,3.80
2018-12-25T14:24:10.986Z,3.80
2018-12-25T14:26:38.734Z,3.90
2018-12-25T14:29:07.307Z,4.00
2018-12-25T14:31:34.644Z,4.00
2018-12-25T14:34:02.276Z,4.00
2018-12-25T14:36:30.290Z,4.00
2018-12-25T14:38:57.762Z,4.00
2018-12-25T14:41:25.133Z,3.90
2018-12-25T14:43:52.863Z,3.90
2018-12-25T14:46:20.516Z,4.10
2018-12-25T14:48:48.339Z,4.10
2018-12-25T14:51:16.341Z,4.00
2018-12-25T14:53:44.309Z,4.00
2018-12-25T14:56:12.459Z,4.00
2018-12-25T14:58:40.352Z,4.00
2018-12-25T15:01:08.233Z,4.10
2018-12-25T15:03:35.588Z,3.90
2018-12-25T15:06:03.247Z,3.90
2018-12-25T15:08:30.925Z,4.00
2018-12-25T15:10:58.265Z,4.00
2018-12-25T15:13:25.990Z,3.90
2018-12-25T15:15:54.128Z,4.00
2018-12-25T15:18:21.481Z,3.90
2018-12-25T15:20:48.941Z,3.90
2018-12-25T15:23:16.990Z,3.90
2018-12-25T15:25:44.367Z,3.90
2018-12-25T15:28:11.710Z,3.90
2018-12-25T15:30:39.372Z,4.00
2018-12-25T15:33:06.726Z,3.90
2018-12-25T15:35:34.385Z,3.90
2018-12-25T15:38:01.971Z,3.90
2018-12-25T15:40:29.400Z,3.80
2018-12-25T15:42:57.162Z,3.80
2018-12-25T15:45:25.036Z,3.80
2018-12-25T15:47:52.431Z,4.00
2018-12-25T15:50:20.162Z,4.20
2018-12-25T15:52:47.503Z,4.20
2018-12-25T15:55:14.860Z,4.20
2018-12-25T15:57:42.572Z,4.20
2018-12-25T16:00:13.948Z,4.40
2018-12-25T16:02:41.580Z,4.40
2018-12-25T16:05:08.904Z,4.50
2018-12-25T16:07:36.217Z,4.30
2018-12-25T16:10:03.917Z,4.30
2018-12-25T16:12:31.372Z,4.40
2018-12-25T16:14:59.177Z,4.30
2018-12-25T16:17:26.542Z,4.60
2018-12-25T16:19:54.245Z,4.50
2018-12-25T16:22:21.611Z,4.40
2018-12-25T16:24:49.128Z,4.20
2018-12-25T16:27:16.551Z,4.20
2018-12-25T16:29:44.214Z,4.20
2018-12-25T16:32:12.799Z,4.10
2018-12-25T16:34:40.676Z,4.20
2018-12-25T16:37:08.501Z,4.30
2018-12-25T16:39:36.227Z,4.50
2018-12-25T16:42:03.926Z,4.40
2018-12-25T16:44:31.286Z,4.10
2018-12-25T16:46:58.750Z,4.30
2018-12-25T16:49:26.941Z,4.30
2018-12-25T16:51:54.292Z,4.20
2018-12-25T16:54:22.172Z,4.20
2018-12-25T16:56:49.671Z,4.00
2018-12-25T16:59:17.905Z,3.90
2018-12-25T17:01:45.385Z,3.90
2018-12-25T17:04:13.138Z,3.90
2018-12-25T17:06:40.706Z,3.80
2018-12-25T17:09:08.256Z,4.00
2018-12-25T17:11:35.908Z,4.20
2018-12-25T17:14:03.689Z,4.20
2018-12-25T17:16:31.786Z,4.10
2018-12-25T17:18:59.379Z,4.20
2018-12-25T17:21:27.162Z,4.00
2018-12-25T17:24:02.257Z,3.80
2018-12-25T17:26:24.812Z,3.70
2018-12-25T17:28:52.397Z,3.90
2018-12-25T17:31:19.916Z,3.90
2018-12-25T17:33:48.625Z,4.00
2018-12-25T17:36:16.374Z,3.80
2018-12-25T17:38:44.440Z,3.90
2018-12-25T17:41:12.215Z,4.10
2018-12-25T17:43:40.594Z,4.00
2018-12-25T17:46:08.236Z,3.90
2018-12-25T17:48:36.438Z,4.00
2018-12-25T17:51:04.135Z,4.10
2018-12-25T17:53:31.783Z,4.10
2018-12-25T17:55:59.827Z,4.00
2018-12-25T17:58:27.639Z,4.10
2018-12-25T18:00:55.730Z,4.00
2018-12-25T18:03:27.855Z,3.80
2018-12-25T18:05:55.906Z,4.00
2018-12-25T18:08:23.974Z,3.70
2018-12-25T18:10:52.755Z,3.70
2018-12-25T18:13:22.875Z,3.80
2018-12-25T18:15:50.960Z,3.70
2018-12-25T18:18:22.669Z,3.50
2018-12-25T18:20:51.152Z,3.60
2018-12-25T18:23:22.570Z,3.70
2018-12-25T18:25:52.861Z,4.00
2018-12-25T18:28:20.909Z,3.90
2018-12-25T18:30:55.317Z,4.00
2018-12-25T18:33:23.093Z,4.00
2018-12-25T18:35:51.237Z,3.90
2018-12-25T18:38:19.307Z,3.80
2018-12-25T18:40:47.343Z,3.70
2018-12-25T18:43:15.831Z,3.60
2018-12-25T18:45:43.766Z,3.60
2018-12-25T18:48:16.589Z,3.60
2018-12-25T18:50:44.877Z,3.60
2018-12-25T18:53:13.760Z,3.60
2018-12-25T18:55:42.030Z,3.60
2018-12-25T18:58:09.829Z,3.70
2018-12-25T19:00:42.093Z,3.70
2018-12-25T19:03:12.826Z,3.70
2018-12-25T19:05:40.570Z,3.40
2018-12-25T19:08:08.672Z,3.30
2018-12-25T19:10:36.889Z,3.20
2018-12-25T19:13:05.068Z,3.30
2018-12-25T19:15:36.736Z,3.40
2018-12-25T19:18:06.593Z,3.50
2018-12-25T19:20:42.669Z,3.50
2018-12-25T19:23:10.906Z,3.40
2018-12-25T19:25:39.616Z,3.40
2018-12-25T19:28:08.137Z,3.50
2018-12-25T19:30:38.013Z,3.80
2018-12-25T19:33:05.726Z,3.90
2018-12-25T19:35:33.789Z,3.70
2018-12-25T19:38:02.070Z,3.70
2018-12-25T19:40:57.454Z,3.70
2018-12-25T19:43:52.466Z,3.50
2018-12-25T19:46:20.184Z,3.30
2018-12-25T19:48:48.335Z,3.50
2018-12-25T19:51:16.269Z,3.60
2018-12-25T19:53:44.229Z,3.60
2018-12-25T19:56:11.752Z,3.70
2018-12-25T19:58:39.744Z,3.70
2018-12-25T20:01:07.480Z,3.60
2018-12-25T20:03:44.838Z,3.60
2018-12-25T20:06:54.278Z,3.60
2018-12-25T20:10:05.665Z,3.80
2018-12-25T20:13:19.621Z,3.70
2018-12-25T20:16:03.660Z,3.80
2018-12-25T20:18:47.458Z,3.90
2018-12-25T20:22:15.238Z,3.60
2018-12-25T20:25:21.155Z,3.50
2018-12-25T20:28:23.937Z,3.50
2018-12-25T20:31:39.623Z,3.60
2018-12-25T20:34:48.513Z,3.60
2018-12-25T20:37:52.550Z,3.60
2018-12-25T20:41:06.332Z,3.80
2018-12-25T20:44:10.672Z,3.80
2018-12-25T20:47:21.637Z,3.90
2018-12-25T20:50:55.924Z,4.00
2018-12-25T20:54:16.963Z,4.10
2018-12-25T20:57:37.377Z,4.10
2018-12-25T21:00:49.137Z,3.90
2018-12-25T21:04:08.870Z,3.70
2018-12-25T21:06:57.791Z,3.70
2018-12-25T21:10:13.687Z,3.90
2018-12-25T21:13:18.874Z,3.90
2018-12-25T21:16:34.572Z,3.90
2018-12-25T21:19:35.728Z,3.90
2018-12-25T21:22:39.121Z,3.90
2018-12-25T21:25:43.297Z,3.90
2018-12-25T21:28:09.939Z,4.00
2018-12-25T21:30:37.641Z,4.00
2018-12-25T21:33:05.952Z,4.10
2018-12-25T21:35:33.888Z,4.00
2018-12-25T21:38:01.733Z,4.10
2018-12-25T21:40:29.504Z,3.90
2018-12-25T21:42:57.869Z,4.00
2018-12-25T21:45:25.610Z,4.00
2018-12-25T21:47:54.130Z,3.90
2018-12-25T21:50:22.322Z,3.80
2018-12-25T21:52:51.311Z,3.60
2018-12-25T21:55:19.560Z,3.50
2018-12-25T21:57:49.011Z,3.50
2018-12-25T22:00:18.057Z,3.50
2018-12-25T22:02:46.570Z,3.50
2018-12-25T22:05:14.687Z,3.50
2018-12-25T22:07:42.850Z,3.60
2018-12-25T22:10:10.620Z,3.50
2018-12-25T22:12:38.390Z,3.50
2018-12-25T22:15:07.867Z,3.50
2018-12-25T22:17:35.520Z,3.60
2018-12-25T22:20:24.675Z,3.70
2018-12-25T22:22:52.382Z,3.80
2018-12-25T22:25:27.016Z,3.80
2018-12-25T22:27:49.578Z,3.80
2018-12-25T22:30:19.457Z,3.80
2018-12-25T22:32:47.557Z,3.70
2018-12-25T22:35:16.156Z,3.60
2018-12-25T22:37:44.240Z,3.60
2018-12-25T22:40:12.358Z,3.70
2018-12-25T22:42:39.975Z,3.50
2018-12-25T22:45:07.723Z,3.50
2018-12-25T22:47:35.918Z,3.50
2018-12-25T22:50:04.349Z,3.50
2018-12-25T22:52:32.108Z,3.50
2018-12-25T22:54:59.954Z,3.40
2018-12-25T22:57:28.343Z,3.40
2018-12-25T22:59:56.522Z,3.40
2018-12-25T23:02:24.144Z,3.40
2018-12-25T23:04:52.127Z,3.50
2018-12-25T23:07:20.256Z,3.60
2018-12-25T23:09:47.866Z,3.70
2018-12-25T23:12:15.874Z,3.70
2018-12-25T23:14:43.394Z,3.60
2018-12-25T23:17:11.324Z,3.60
2018-12-25T23:19:39.247Z,3.60
2018-12-25T23:22:07.000Z,3.50
2018-12-25T23:24:34.661Z,3.50
2018-12-25T23:27:08.682Z,3.50
2018-12-25T23:29:36.282Z,3.60
2018-12-25T23:32:04.002Z,3.60
2018-12-25T23:34:31.619Z,3.50
2018-12-25T23:36:59.667Z,3.50
2018-12-25T23:39:27.625Z,3.50
2018-12-25T23:41:55.688Z,3.60
2018-12-25T23:44:23.170Z,3.60
2018-12-25T23:46:51.028Z,3.50
2018-12-25T23:49:19.095Z,3.50
2018-12-25T23:51:46.697Z,3.50
2018-12-25T23:54:14.737Z,3.70
2018-12-25T23:56:42.686Z,3.90
2018-12-25T23:59:10.284Z,3.90
